Time;durP1;ratioP1;P1;durP2;ratioP2;P2;SDS_P1;SDS_P2;PMS_P1;PMS_P2;Temp;Humidity;BMP_temperature;BMP_pressure;BME280_temperature;BME280_humidity;BME280_pressure;Samples;Min_cycle;Max_cycle;Signal;HPM_P1;HPM_P2
2023/04/21 00:03:02;;;;;;;10.80;2.30;;;;;;;14.37;98.15;100660.91;5094482;28;20458;-95
2023/04/21 00:05:30;;;;;;;6.80;2.00;;;;;;;14.32;97.94;100660.72;5077662;28;20467;-94
2023/04/21 00:08:39;;;;;;;8.80;2.43;;;;;;;14.25;98.28;100657.16;5045613;28;20490;-95
2023/04/21 00:11:10;;;;;;;7.20;2.10;;;;;;;14.23;98.69;100643.66;5077999;28;20456;-93
2023/04/21 00:17:18;;;;;;;11.53;2.43;;;;;;;14.11;98.36;100635.25;5074535;28;20432;-94
2023/04/21 00:20:19;;;;;;;14.40;2.47;;;;;;;14.17;98.32;100639.88;5044243;28;20451;-93
2023/04/21 00:22:49;;;;;;;13.33;2.90;;;;;;;14.02;97.42;100628.34;5060405;28;20514;-94
2023/04/21 00:25:18;;;;;;;8.77;2.70;;;;;;;14.02;97.02;100635.75;5077410;28;20540;-96
2023/04/21 00:27:46;;;;;;;9.70;2.53;;;;;;;13.94;97.20;100634.06;5061579;28;20475;-94
2023/04/21 00:30:26;;;;;;;15.23;2.60;;;;;;;13.96;97.36;100645.69;5043342;28;20504;-93
2023/04/21 00:36:35;;;;;;;11.33;2.47;;;;;;;13.83;97.37;100637.53;5067456;28;20521;-94
2023/04/21 00:46:26;;;;;;;7.70;2.70;;;;;;;13.65;97.27;100637.38;5094912;28;20544;-95
2023/04/21 00:49:17;;;;;;;7.50;2.50;;;;;;;13.60;97.22;100626.19;5059690;28;20455;-93
2023/04/21 00:55:27;;;;;;;8.47;1.90;;;;;;;13.45;97.87;100618.22;5095146;28;20898;-96
2023/04/21 00:58:02;;;;;;;8.00;2.37;;;;;;;13.47;97.38;100616.06;5040877;28;20502;-94
2023/04/21 01:00:57;;;;;;;6.73;2.27;;;;;;;13.42;97.01;100618.66;5020861;28;20442;-92
2023/04/21 01:04:15;;;;;;;10.70;3.20;;;;;;;13.35;97.28;100612.31;5039966;28;20445;-93
2023/04/21 01:10:01;;;;;;;11.70;2.43;;;;;;;13.23;98.05;100589.34;5094365;28;20439;-94
2023/04/21 01:12:31;;;;;;;10.90;2.63;;;;;;;13.31;97.87;100605.56;5056811;28;21083;-96
2023/04/21 01:19:30;;;;;;;17.57;2.37;;;;;;;13.26;97.73;100602.66;5094287;28;20463;-93
2023/04/21 01:22:09;;;;;;;5.17;2.00;;;;;;;13.15;96.90;100595.91;5076643;28;20449;-94
2023/04/21 01:28:25;;;;;;;11.13;2.13;;;;;;;13.08;97.21;100589.56;5094397;28;20518;-95
2023/04/21 01:31:30;;;;;;;8.50;2.70;;;;;;;13.06;97.33;100588.94;5043864;28;20440;-94
2023/04/21 01:38:27;;;;;;;8.10;1.77;;;;;;;13.03;97.85;100589.38;5094142;28;20470;-95
2023/04/21 01:44:35;;;;;;;6.63;2.00;;;;;;;12.94;97.54;100569.53;5088456;28;20439;-95
2023/04/21 01:50:33;;;;;;;10.93;2.53;;;;;;;12.90;97.76;100581.13;5093539;28;20452;-93
2023/04/21 01:53:00;;;;;;;5.93;1.90;;;;;;;12.87;97.67;100576.94;5060117;28;20440;-93
2023/04/21 01:55:34;;;;;;;5.17;2.27;;;;;;;12.86;97.95;100575.25;5044331;28;20484;-93
2023/04/21 02:01:50;;;;;;;5.37;2.23;;;;;;;12.85;98.91;100578.22;5077823;28;20984;-94
2023/04/21 02:08:05;;;;;;;16.53;2.93;;;;;;;12.88;99.05;100577.78;5098360;28;20440;-93
2023/04/21 02:11:03;;;;;;;10.30;2.90;;;;;;;12.92;98.73;100579.03;5061931;28;20440;-93
2023/04/21 02:14:09;;;;;;;8.27;2.33;;;;;;;12.90;98.25;100581.97;5078998;28;20433;-93
2023/04/21 02:24:14;;;;;;;9.80;3.27;;;;;;;12.88;97.70;100578.63;5096676;28;20891;-93
2023/04/21 02:26:43;;;;;;;10.30;2.17;;;;;;;12.89;97.32;100580.31;5044090;28;20771;-94
2023/04/21 02:29:10;;;;;;;6.83;2.10;;;;;;;12.83;97.13;100572.94;5063065;28;20493;-93
2023/04/21 02:35:26;;;;;;;7.83;2.20;;;;;;;12.85;97.63;100573.56;5097553;28;20992;-92
2023/04/21 02:37:54;;;;;;;5.13;2.00;;;;;;;12.82;98.04;100563.03;5047236;28;20489;-94
2023/04/21 02:44:06;;;;;;;10.53;2.40;;;;;;;12.75;96.63;100579.47;5093326;28;20988;-93
2023/04/21 02:46:42;;;;;;;11.10;2.70;;;;;;;12.67;96.44;100578.84;5045869;28;20498;-93
2023/04/21 02:49:49;;;;;;;11.80;1.90;;;;;;;12.74;96.18;100585.16;5048873;28;20441;-94
2023/04/21 02:52:38;;;;;;;6.10;2.00;;;;;;;12.73;96.17;100587.06;5063426;28;20432;-93
2023/04/21 02:58:37;;;;;;;9.30;2.10;;;;;;;12.63;95.58;100580.34;5089804;28;20448;-92
2023/04/21 03:09:04;;;;;;;11.10;2.87;;;;;;;12.57;96.43;100597.63;5096511;28;20462;-94
2023/04/21 03:18:44;;;;;;;5.70;1.83;;;;;;;12.56;97.66;100584.97;5096173;28;20436;-95
2023/04/21 03:21:11;;;;;;;8.27;1.80;;;;;;;12.60;97.06;100588.97;5045454;28;20437;-93
2023/04/21 03:23:39;;;;;;;9.97;2.17;;;;;;;12.55;96.60;100580.53;5060081;28;21007;-93
2023/04/21 03:27:00;;;;;;;6.30;2.53;;;;;;;12.53;96.20;100585.38;5043504;28;20445;-93
2023/04/21 03:33:22;;;;;;;6.57;1.73;;;;;;;12.43;95.94;100583.91;5076276;28;20835;-96
2023/04/21 03:39:38;;;;;;;5.90;1.63;;;;;;;12.42;95.69;100568.53;5094595;28;20524;-93
2023/04/21 03:42:20;;;;;;;8.73;2.30;;;;;;;12.41;95.13;100572.31;5045184;28;20473;-93
2023/04/21 03:44:50;;;;;;;13.67;2.00;;;;;;;12.36;95.31;100574.81;5046792;28;20798;-94
2023/04/21 03:51:01;;;;;;;13.80;2.27;;;;;;;12.32;94.85;100578.19;5091340;28;20478;-94
2023/04/21 03:54:23;;;;;;;8.80;2.77;;;;;;;12.32;95.06;100579.03;5078549;28;20444;-93
2023/04/21 03:56:53;;;;;;;13.60;1.90;;;;;;;12.22;95.35;100573.13;5078404;28;20429;-92
2023/04/21 03:59:45;;;;;;;5.47;2.10;;;;;;;12.27;95.39;100576.09;5045365;28;20456;-92
2023/04/21 04:13:33;;;;;;;18.33;2.57;;;;;;;12.09;95.92;100573.13;5075357;28;20501;-94
2023/04/21 04:16:01;;;;;;;6.67;1.97;;;;;;;12.12;95.98;100566.41;5041267;28;20477;-94
2023/04/21 04:18:38;;;;;;;14.93;2.70;;;;;;;12.07;95.88;100564.28;5025799;28;20422;-93
2023/04/21 04:21:12;;;;;;;9.20;1.70;;;;;;;12.10;96.23;100577.56;5023545;28;20457;-93
2023/04/21 04:24:18;;;;;;;19.63;2.43;;;;;;;12.07;96.29;100572.50;5061844;28;20452;-93
2023/04/21 04:27:48;;;;;;;7.50;2.23;;;;;;;12.02;95.94;100578.59;5077443;28;20436;-93
2023/04/21 04:34:15;;;;;;;10.00;1.93;;;;;;;11.92;96.08;100575.41;5094888;28;20446;-93
2023/04/21 04:36:46;;;;;;;4.37;1.77;;;;;;;11.82;96.42;100565.88;5059035;28;20507;-95
2023/04/21 04:39:28;;;;;;;6.13;1.90;;;;;;;11.82;95.88;100568.63;5062719;28;20441;-94
2023/04/21 04:42:35;;;;;;;6.30;2.10;;;;;;;11.87;96.58;100579.81;5023116;28;20433;-93
2023/04/21 04:48:51;;;;;;;8.87;2.00;;;;;;;11.85;96.74;100565.47;5092580;28;20407;-93
2023/04/21 04:55:07;;;;;;;7.20;2.23;;;;;;;11.72;96.85;100556.16;5086038;28;20977;-93
2023/04/21 04:57:54;;;;;;;5.60;1.60;;;;;;;11.74;97.70;100562.25;5024260;28;20448;-93
2023/04/21 05:04:44;;;;;;;8.37;1.90;;;;;;;11.74;97.20;100572.34;5093828;28;20868;-93
2023/04/21 05:07:43;;;;;;;7.30;2.30;;;;;;;11.73;96.88;100559.75;5072802;28;20456;-94
2023/04/21 05:10:22;;;;;;;8.50;2.20;;;;;;;11.72;96.48;100569.00;5074042;28;20425;-94
2023/04/21 05:18:45;;;;;;;11.37;2.23;;;;;;;11.59;96.52;100556.09;5172412;27;20434;-94
2023/04/21 05:21:26;;;;;;;8.13;2.13;;;;;;;11.63;96.66;100562.84;5121570;27;20466;-93
2023/04/21 05:24:23;;;;;;;5.60;1.60;;;;;;;11.63;96.80;100565.59;5141526;27;20517;-93
2023/04/21 05:27:37;;;;;;;7.73;2.30;;;;;;;11.66;96.36;100570.66;5121956;27;20413;-95
2023/04/21 05:30:34;;;;;;;5.80;1.57;;;;;;;11.62;96.16;100577.59;5155268;27;20469;-92
2023/04/21 05:33:11;;;;;;;4.70;2.00;;;;;;;11.54;96.37;100564.09;5139140;27;20465;-93
2023/04/21 05:35:55;;;;;;;13.87;2.70;;;;;;;11.60;96.71;100573.38;5122472;27;20435;-92
2023/04/21 05:39:05;;;;;;;8.43;2.20;;;;;;;11.60;96.80;100579.69;5134059;27;20444;-93
2023/04/21 05:41:39;;;;;;;6.87;2.10;;;;;;;11.58;97.34;100576.31;5155766;27;20468;-94
2023/04/21 05:44:49;;;;;;;7.83;2.27;;;;;;;11.60;96.90;100579.69;5122786;27;20456;-93
2023/04/21 05:47:45;;;;;;;6.43;2.60;;;;;;;11.62;96.57;100580.31;5154963;27;21007;-94
2023/04/21 05:50:35;;;;;;;6.50;2.07;;;;;;;11.62;96.41;100583.06;5125338;27;20803;-94
2023/04/21 05:53:03;;;;;;;8.53;2.20;;;;;;;11.61;96.23;100583.25;5151759;27;20570;-93
2023/04/21 05:56:12;;;;;;;8.30;2.10;;;;;;;11.61;96.13;100578.63;5127059;27;20785;-94
2023/04/21 05:59:35;;;;;;;7.53;2.13;;;;;;;11.59;95.92;100583.47;5156324;27;20494;-92
2023/04/21 06:02:08;;;;;;;8.50;2.17;;;;;;;11.54;96.18;100574.19;5154885;27;20451;-92
2023/04/21 06:05:10;;;;;;;12.43;2.20;;;;;;;11.58;96.32;100575.44;5121453;27;20482;-94
2023/04/21 06:08:06;;;;;;;7.77;2.77;;;;;;;11.58;96.30;100576.31;5137887;27;20452;-95
2023/04/21 06:14:48;;;;;;;8.83;2.77;;;;;;;11.56;96.16;100572.91;5170104;27;20482;-94
2023/04/21 06:17:31;;;;;;;8.70;2.13;;;;;;;11.54;96.92;100564.09;5154381;27;20477;-93
2023/04/21 06:20:52;;;;;;;11.93;2.20;;;;;;;11.65;96.82;100577.19;5133690;27;20469;-94
2023/04/21 06:24:05;;;;;;;37.67;3.53;;;;;;;11.69;96.66;100570.25;5135638;27;20955;-94
2023/04/21 06:30:20;;;;;;;43.77;6.10;;;;;;;11.78;96.50;100576.41;5158734;27;20498;-92
2023/04/21 06:33:19;;;;;;;88.60;7.13;;;;;;;11.85;96.63;100576.44;5116708;27;20468;-94
2023/04/21 06:36:05;;;;;;;64.33;6.90;;;;;;;11.84;96.86;100558.31;5120567;27;20916;-93
2023/04/21 06:42:20;;;;;;;26.80;3.60;;;;;;;12.09;97.27;100576.72;5138111;27;20848;-94
2023/04/21 06:45:02;;;;;;;18.47;2.73;;;;;;;12.13;97.75;100568.91;5114820;27;20453;-93
2023/04/21 06:47:33;;;;;;;18.73;2.97;;;;;;;12.19;97.42;100565.34;5108766;27;20498;-93
2023/04/21 06:50:17;;;;;;;20.43;4.00;;;;;;;12.29;97.61;100571.25;5111554;27;20442;-93
2023/04/21 06:53:26;;;;;;;64.50;4.77;;;;;;;12.48;97.94;100575.06;5107352;27;20438;-93
2023/04/21 06:56:18;;;;;;;6.23;2.60;;;;;;;12.58;98.09;100577.38;5123642;27;20470;-93
2023/04/21 06:59:02;;;;;;;12.77;2.40;;;;;;;12.56;98.47;100560.28;5139897;27;20446;-93
2023/04/21 07:01:42;;;;;;;43.57;5.00;;;;;;;12.75;98.65;100573.13;5137155;27;21005;-93
2023/04/21 07:04:32;;;;;;;53.07;7.43;;;;;;;12.95;98.69;100579.44;5103976;27;20438;-94
2023/04/21 07:07:21;;;;;;;36.13;4.40;;;;;;;13.06;98.93;100578.81;5102628;27;20442;-93
2023/04/21 07:10:18;;;;;;;10.90;3.20;;;;;;;13.20;98.95;100579.66;5112050;27;20433;-93
2023/04/21 07:12:45;;;;;;;10.23;3.30;;;;;;;13.31;99.34;100583.63;5116891;27;20933;-93
2023/04/21 07:15:18;;;;;;;14.33;3.30;;;;;;;13.47;99.40;100577.66;5100891;27;20442;-93
2023/04/21 07:18:10;;;;;;;27.27;3.97;;;;;;;13.64;99.79;100578.88;5102791;27;20488;-93
2023/04/21 07:20:51;;;;;;;18.40;5.07;;;;;;;13.74;100.00;100573.72;5118624;27;20439;-93
2023/04/21 07:23:30;;;;;;;20.07;3.27;;;;;;;14.00;100.00;100582.91;5107509;27;20465;-93
2023/04/21 07:26:26;;;;;;;7.20;3.20;;;;;;;14.17;100.00;100578.56;5105024;27;20457;-92
2023/04/21 07:29:36;;;;;;;8.83;3.63;;;;;;;14.35;100.00;100581.41;5102400;27;20537;-94
2023/04/21 07:32:17;;;;;;;9.77;3.07;;;;;;;14.55;100.00;100583.19;5131034;27;20479;-94
2023/04/21 07:34:48;;;;;;;7.53;2.50;;;;;;;14.71;100.00;100590.88;5139346;27;20536;-95
2023/04/21 07:37:53;;;;;;;9.67;2.40;;;;;;;14.88;100.00;100580.97;5120303;27;20924;-93
2023/04/21 07:40:29;;;;;;;8.70;2.87;;;;;;;15.03;100.00;100575.13;5139812;27;20443;-92
2023/04/21 07:43:09;;;;;;;10.20;2.20;;;;;;;15.19;100.00;100575.38;5103115;27;20457;-93
2023/04/21 07:45:53;;;;;;;8.97;2.70;;;;;;;15.38;100.00;100575.41;5108587;27;20438;-93
2023/04/21 07:48:33;;;;;;;7.80;2.00;;;;;;;15.43;100.00;100567.25;5122918;27;20448;-92
2023/04/21 07:51:45;;;;;;;5.77;2.40;;;;;;;15.68;100.00;100592.84;5102417;27;20426;-92
2023/04/21 07:54:36;;;;;;;14.00;3.70;;;;;;;15.83;100.00;100579.50;5119977;27;20481;-92
2023/04/21 07:57:42;;;;;;;16.23;2.60;;;;;;;15.99;100.00;100580.75;5100886;27;20447;-94
2023/04/21 08:00:24;;;;;;;8.60;2.53;;;;;;;16.08;100.00;100571.09;5118696;27;20431;-94
2023/04/21 08:03:13;;;;;;;5.57;2.50;;;;;;;16.27;100.00;100579.31;5104129;27;20495;-93
2023/04/21 08:09:32;;;;;;;8.43;2.63;;;;;;;16.75;100.00;100593.00;5136353;27;20421;-93
2023/04/21 08:12:37;;;;;;;7.93;2.63;;;;;;;16.92;99.63;100594.00;5102109;27;20783;-95
2023/04/21 08:15:11;;;;;;;11.93;2.53;;;;;;;17.01;99.53;100578.72;5135213;27;20982;-94
2023/04/21 08:17:49;;;;;;;5.83;2.13;;;;;;;17.24;99.00;100584.25;5121280;27;20434;-93
2023/04/21 08:20:33;;;;;;;7.67;2.50;;;;;;;17.32;98.50;100583.03;5119319;27;20443;-93
2023/04/21 08:23:21;;;;;;;6.73;1.90;;;;;;;17.44;98.06;100585.78;5105484;27;20430;-94
2023/04/21 08:25:56;;;;;;;5.00;1.93;;;;;;;17.44;97.91;100577.50;5122171;27;20525;-92
2023/04/21 08:28:57;;;;;;;6.90;1.70;;;;;;;17.65;97.76;100585.19;5104918;27;20445;-93
2023/04/21 08:31:28;;;;;;;10.70;1.70;;;;;;;17.66;97.40;100573.03;5035184;28;20450;-91
2023/04/21 08:33:56;;;;;;;13.20;2.40;;;;;;;17.85;97.71;100582.84;5019433;28;20995;-91
2023/04/21 08:36:30;;;;;;;4.50;1.70;;;;;;;18.05;97.98;100581.56;5004816;28;20447;-90
2023/04/21 08:38:58;;;;;;;7.33;1.80;;;;;;;18.24;98.60;100585.78;5014904;28;20502;-91
2023/04/21 08:41:27;;;;;;;9.00;2.10;;;;;;;18.38;98.43;100584.38;4999515;28;20522;-90
2023/04/21 08:43:55;;;;;;;6.53;2.03;;;;;;;18.49;97.38;100572.41;5023204;28;20465;-90
2023/04/21 08:46:24;;;;;;;10.77;1.93;;;;;;;18.60;96.82;100581.75;5035481;28;20450;-91
2023/04/21 08:48:53;;;;;;;11.27;2.00;;;;;;;18.63;96.95;100590.41;5019426;28;20442;-91
2023/04/21 08:51:22;;;;;;;7.77;1.70;;;;;;;18.70;96.99;100589.38;5018697;28;20481;-91
2023/04/21 08:53:53;;;;;;;3.77;1.50;;;;;;;18.84;97.49;100599.06;5033752;28;20508;-91
2023/04/21 08:56:24;;;;;;;7.70;1.77;;;;;;;19.02;97.00;100604.34;5015830;28;20861;-91
2023/04/21 08:58:54;;;;;;;37.70;3.13;;;;;;;19.22;96.98;100610.19;5027601;28;20428;-91
2023/04/21 09:01:22;;;;;;;9.93;1.60;;;;;;;19.38;96.23;100602.09;5031300;28;20454;-91
2023/04/21 09:03:52;;;;;;;6.57;1.60;;;;;;;19.55;95.98;100611.25;5024612;28;20534;-91
2023/04/21 09:06:22;;;;;;;6.93;1.70;;;;;;;19.71;95.50;100606.72;5041410;28;20508;-91
2023/04/21 09:08:55;;;;;;;10.73;1.43;;;;;;;19.82;95.23;100617.69;5128560;27;20426;-91
2023/04/21 09:11:31;;;;;;;8.03;1.50;;;;;;;19.93;94.48;100615.91;5104041;27;20474;-91
2023/04/21 09:14:01;;;;;;;8.60;1.73;;;;;;;20.02;94.43;100620.72;5116028;28;20477;-91
2023/04/21 09:16:32;;;;;;;7.63;1.57;;;;;;;20.07;93.45;100617.16;5132635;28;20504;-91
2023/04/21 09:19:00;;;;;;;9.83;1.40;;;;;;;20.05;93.23;100626.84;5099124;28;20451;-91
2023/04/21 09:21:27;;;;;;;5.90;1.40;;;;;;;19.98;93.67;100625.13;5096260;28;20967;-91
2023/04/21 09:23:59;;;;;;;9.03;1.87;;;;;;;20.05;94.07;100627.69;5094869;28;20439;-91
2023/04/21 09:26:27;;;;;;;13.07;2.27;;;;;;;20.02;93.93;100617.94;5099316;28;20439;-91
2023/04/21 09:28:56;;;;;;;9.07;1.90;;;;;;;20.00;94.34;100614.63;5098611;28;20806;-92
2023/04/21 09:31:24;;;;;;;5.87;2.03;;;;;;;20.11;94.71;100625.81;5095239;28;20452;-91
2023/04/21 09:33:56;;;;;;;8.90;1.83;;;;;;;20.31;94.75;100628.81;5096507;28;21103;-92
2023/04/21 09:36:41;;;;;;;9.80;1.80;;;;;;;20.53;94.06;100621.31;5084948;28;20428;-92
2023/04/21 09:39:47;;;;;;;9.97;1.90;;;;;;;20.76;93.60;100630.44;5097390;28;20424;-92
2023/04/21 09:42:32;;;;;;;9.20;2.30;;;;;;;20.89;92.50;100618.88;5133365;27;20514;-93
2023/04/21 09:45:11;;;;;;;8.40;1.80;;;;;;;21.13;92.61;100628.50;5096267;28;20440;-95
2023/04/21 09:48:04;;;;;;;5.23;1.83;;;;;;;21.30;91.90;100625.59;5079189;28;20474;-94
2023/04/21 09:50:33;;;;;;;5.30;1.53;;;;;;;21.37;90.77;100609.50;5059182;28;20448;-94
2023/04/21 09:53:24;;;;;;;8.23;1.80;;;;;;;21.54;90.73;100620.47;5070149;28;20426;-94
2023/04/21 09:55:55;;;;;;;5.10;1.77;;;;;;;21.51;90.03;100609.88;5093238;28;20436;-95
2023/04/21 09:58:34;;;;;;;7.53;1.70;;;;;;;21.51;90.07;100612.66;5062592;28;20443;-94
2023/04/21 10:01:03;;;;;;;5.77;2.00;;;;;;;21.38;90.30;100609.22;5064541;28;20478;-95
2023/04/21 10:03:32;;;;;;;5.70;1.50;;;;;;;21.34;90.38;100624.81;5064650;28;21007;-95
2023/04/21 10:06:14;;;;;;;6.10;1.53;;;;;;;21.26;91.03;100625.28;5080142;27;20469;-92
2023/04/21 10:12:23;;;;;;;11.00;1.83;;;;;;;21.28;91.59;100628.66;5136970;27;20473;-94
2023/04/21 10:15:03;;;;;;;8.87;1.43;;;;;;;21.18;91.65;100611.84;5120280;27;20471;-93
2023/04/21 10:17:39;;;;;;;4.73;0.90;;;;;;;21.33;91.86;100636.19;5103660;27;20438;-94
2023/04/21 10:20:09;;;;;;;10.13;1.27;;;;;;;21.50;91.54;100636.03;5103072;27;20434;-94
2023/04/21 10:22:38;;;;;;;7.53;1.43;;;;;;;21.61;90.89;100615.50;5103349;27;20500;-94
2023/04/21 10:25:09;;;;;;;6.87;1.70;;;;;;;21.75;90.89;100616.66;5102752;27;20464;-93
2023/04/21 10:27:39;;;;;;;3.33;1.07;;;;;;;21.88;90.29;100630.09;5103066;27;20462;-95
2023/04/21 10:30:27;;;;;;;10.20;1.60;;;;;;;22.04;89.77;100608.75;5103040;27;20449;-95
2023/04/21 10:33:03;;;;;;;9.37;1.10;;;;;;;22.35;88.66;100612.47;5099734;27;20443;-94
2023/04/21 10:39:47;;;;;;;9.90;1.87;;;;;;;22.72;87.14;100601.09;5141066;27;20919;-96
2023/04/21 10:43:05;;;;;;;6.67;1.90;;;;;;;23.10;85.86;100613.66;5124867;27;20460;-96
2023/04/21 10:46:14;;;;;;;8.20;1.50;;;;;;;23.24;84.93;100616.72;5116716;28;20440;-96
2023/04/21 10:54:21;;;;;;;5.87;1.23;;;;;;;24.05;81.47;100619.31;5306843;23;20520;-96
2023/04/21 10:56:53;;;;;;;3.90;1.43;;;;;;;24.05;80.49;100620.13;4932540;29;20961;-96
2023/04/21 11:03:08;;;;;;;8.17;1.73;;;;;;;24.09;80.31;100604.47;4973276;28;20485;-96
2023/04/21 11:05:43;;;;;;;6.17;1.33;;;;;;;24.24;80.39;100608.34;4927752;29;20443;-95
2023/04/21 11:12:38;;;;;;;7.77;1.57;;;;;;;24.49;79.50;100615.72;4957178;29;20431;-95
2023/04/21 11:15:14;;;;;;;5.90;1.00;;;;;;;24.69;78.75;100622.00;4873045;29;20571;-95
2023/04/21 11:17:58;;;;;;;4.33;1.33;;;;;;;24.67;78.05;100610.28;4879171;29;20450;-96
2023/04/21 11:36:59;;;;;;;10.57;1.70;;;;;;;24.36;78.40;100618.03;5049414;28;20485;-96
2023/04/21 11:47:16;;;;;;;7.30;1.33;;;;;;;23.87;81.19;100615.16;4973692;28;20395;-96
2023/04/21 12:09:46;;;;;;;24.80;2.50;;;;;;;25.41;76.81;100595.09;5196477;22;20473;-92
2023/04/21 12:17:00;;;;;;;4.53;1.10;;;;;;;25.43;76.03;100587.22;4988652;28;20453;-94
2023/04/21 12:19:43;;;;;;;10.33;1.53;;;;;;;25.32;76.66;100580.09;4989009;28;20439;-93
2023/04/21 12:22:30;;;;;;;8.97;1.40;;;;;;;25.32;76.58;100582.06;4967049;28;20445;-95
2023/04/21 12:24:58;;;;;;;10.60;1.50;;;;;;;25.21;76.95;100578.50;4977547;28;20924;-90
2023/04/21 12:28:05;;;;;;;7.20;1.60;;;;;;;25.24;77.05;100583.53;4977460;28;20778;-95
2023/04/21 12:30:42;;;;;;;10.67;1.17;;;;;;;25.20;77.38;100582.47;4977892;28;20456;-92
2023/04/21 12:33:43;;;;;;;6.70;1.50;;;;;;;25.33;77.02;100573.38;4958504;28;20441;-93
2023/04/21 12:36:32;;;;;;;4.60;0.97;;;;;;;25.52;76.83;100589.41;4974144;28;20456;-93
2023/04/21 12:39:04;;;;;;;8.10;1.13;;;;;;;25.64;76.31;100570.25;4973445;28;21088;-92
2023/04/21 12:41:52;;;;;;;6.73;1.60;;;;;;;25.79;75.60;100576.47;4958083;28;20446;-92
2023/04/21 12:44:27;;;;;;;10.13;1.30;;;;;;;25.86;74.53;100578.94;5015858;28;20814;-92
2023/04/21 12:47:17;;;;;;;5.50;1.27;;;;;;;25.85;73.61;100577.25;5015073;28;20455;-89
2023/04/21 12:49:45;;;;;;;3.97;0.73;;;;;;;25.92;73.57;100565.69;5000737;28;20442;-90
2023/04/21 12:52:13;;;;;;;6.80;0.80;;;;;;;26.00;73.06;100568.66;4983941;28;20457;-90
2023/04/21 12:54:41;;;;;;;4.50;1.30;;;;;;;26.04;72.69;100578.13;4999357;28;20471;-90
2023/04/21 12:57:09;;;;;;;6.10;1.03;;;;;;;26.07;72.83;100571.09;5015702;28;20505;-90
2023/04/21 12:59:36;;;;;;;9.90;1.10;;;;;;;26.06;72.60;100563.81;5015814;28;20446;-89
2023/04/21 13:02:04;;;;;;;9.67;1.57;;;;;;;25.97;72.27;100560.88;5015488;28;20477;-90
2023/04/21 13:04:32;;;;;;;8.00;1.37;;;;;;;26.05;72.23;100551.78;5015915;28;20447;-89
2023/04/21 13:07:00;;;;;;;5.70;1.20;;;;;;;26.17;71.92;100551.31;5015881;28;20436;-89
2023/04/21 13:09:27;;;;;;;7.60;1.47;;;;;;;26.24;71.89;100543.38;4998774;28;20483;-89
2023/04/21 13:11:55;;;;;;;13.00;1.07;;;;;;;26.29;71.48;100556.47;4980199;28;20443;-90
2023/04/21 13:14:23;;;;;;;9.87;1.03;;;;;;;26.09;71.48;100554.81;4995761;28;20488;-90
2023/04/21 13:16:51;;;;;;;5.47;1.40;;;;;;;25.94;71.96;100558.66;5013239;28;20939;-89
2023/04/21 13:19:19;;;;;;;8.33;1.80;;;;;;;25.91;71.79;100548.06;4979624;28;20447;-90
2023/04/21 13:21:49;;;;;;;12.30;2.00;;;;;;;26.00;71.60;100548.19;5006641;28;20451;-90
2023/04/21 13:25:06;;;;;;;10.83;1.73;;;;;;;26.11;71.57;100556.19;5015781;28;20526;-90
2023/04/21 13:27:37;;;;;;;5.30;1.27;;;;;;;26.21;71.62;100557.16;5031325;28;20983;-88
2023/04/21 13:30:10;;;;;;;13.80;1.60;;;;;;;26.29;70.53;100548.06;5015709;28;20450;-88
2023/04/21 13:32:38;;;;;;;7.57;1.17;;;;;;;26.38;70.55;100558.31;5015438;28;20792;-90
2023/04/21 13:35:09;;;;;;;7.30;1.40;;;;;;;26.39;69.44;100562.78;5000640;28;20557;-89
2023/04/21 13:37:37;;;;;;;6.90;2.33;;;;;;;26.28;70.26;100568.81;5000194;28;20452;-89
2023/04/21 13:55:34;;;;;;;8.50;1.77;;;;;;;26.17;71.04;100561.72;5017103;28;20479;-90
2023/04/21 13:58:02;;;;;;;10.10;1.70;;;;;;;26.10;71.38;100551.72;5017294;28;20450;-91
2023/04/21 14:00:38;;;;;;;6.63;1.50;;;;;;;26.08;71.25;100553.97;4987267;28;20497;-91
2023/04/21 22:43:46;;;;;;;3.33;1.10;;;;;;;15.75;100.00;100763.63;6195777;22;20452;-87
2023/04/21 22:47:28;;;;;;;1.87;0.60;;;;;;;15.75;100.00;100769.97;6066643;23;20399;-89
2023/04/21 22:50:47;;;;;;;3.80;0.90;;;;;;;15.74;100.00;100768.28;6042539;23;20443;-88
2023/04/21 23:09:31;;;;;;;;;;;;;;;;;;;;;
